createdAt,value
2018-08-10T00:00:41.838Z,8.70
2018-08-10T00:01:41.714Z,8.90
2018-08-10T00:02:41.591Z,9.20
2018-08-10T00:03:41.759Z,8.80
2018-08-10T00:04:41.350Z,8.60
2018-08-10T00:05:41.224Z,8.60
2018-08-10T00:06:41.102Z,8.90
2018-08-10T00:07:40.980Z,9.20
2018-08-10T00:08:40.856Z,8.90
2018-08-10T00:09:40.737Z,8.70
2018-08-10T00:10:40.608Z,9.00
2018-08-10T00:11:40.485Z,8.80
2018-08-10T00:12:40.362Z,9.50
2018-08-10T00:13:40.241Z,8.60
2018-08-10T00:14:40.119Z,8.80
2018-08-10T00:15:39.993Z,8.60
2018-08-10T00:16:39.873Z,8.40
2018-08-10T00:17:39.750Z,8.70
2018-08-10T00:18:39.627Z,9.10
2018-08-10T00:19:39.504Z,8.80
2018-08-10T00:20:39.382Z,8.80
2018-08-10T00:21:39.259Z,7.70
2018-08-10T00:22:39.134Z,7.90
2018-08-10T00:23:39.015Z,8.40
2018-08-10T00:24:38.890Z,8.30
2018-08-10T00:25:38.770Z,8.40
2018-08-10T00:26:38.647Z,9.00
2018-08-10T00:27:38.522Z,8.40
2018-08-10T00:28:38.400Z,8.40
2018-08-10T00:29:38.281Z,9.20
2018-08-10T00:30:38.158Z,8.40
2018-08-10T00:31:38.037Z,8.40
2018-08-10T00:32:37.911Z,7.80
2018-08-10T00:33:37.787Z,8.30
2018-08-10T00:34:37.675Z,8.10
2018-08-10T00:35:37.542Z,8.50
2018-08-10T00:36:37.420Z,8.30
2018-08-10T00:37:37.300Z,8.10
2018-08-10T00:38:37.177Z,7.80
2018-08-10T00:39:37.054Z,8.10
2018-08-10T00:40:36.932Z,8.10
2018-08-10T00:41:36.809Z,7.50
2018-08-10T00:42:36.686Z,7.90
2018-08-10T00:43:36.564Z,7.70
2018-08-10T00:44:36.445Z,7.90
2018-08-10T00:45:36.320Z,7.90
2018-08-10T00:46:36.197Z,7.80
2018-08-10T00:47:36.078Z,7.30
2018-08-10T00:48:35.952Z,7.70
2018-08-10T00:49:35.829Z,7.80
2018-08-10T00:50:35.706Z,7.20
2018-08-10T00:51:35.588Z,7.40
2018-08-10T00:52:35.463Z,7.70
2018-08-10T00:53:35.342Z,7.20
2018-08-10T00:54:35.218Z,7.40
2018-08-10T00:55:35.099Z,6.90
2018-08-10T00:56:34.977Z,7.20
2018-08-10T00:57:34.854Z,7.50
2018-08-10T00:58:34.735Z,7.20
2018-08-10T00:59:34.607Z,8.20
2018-08-10T01:00:34.486Z,8.70
2018-08-10T01:01:34.369Z,8.70
2018-08-10T01:02:34.240Z,8.90
2018-08-10T01:03:34.120Z,8.50
2018-08-10T01:04:33.998Z,8.90
2018-08-10T01:05:33.877Z,8.40
2018-08-10T01:06:33.754Z,8.80
2018-08-10T01:07:33.629Z,8.70
2018-08-10T01:08:33.509Z,9.20
2018-08-10T01:09:33.387Z,8.90
2018-08-10T01:10:33.269Z,9.60
2018-08-10T01:11:33.139Z,9.80
2018-08-10T01:12:33.023Z,9.60
2018-08-10T01:13:33.014Z,9.20
2018-08-10T01:14:32.773Z,9.60
2018-08-10T01:15:32.652Z,9.00
2018-08-10T01:16:32.532Z,8.60
2018-08-10T01:17:32.408Z,8.90
2018-08-10T01:18:32.287Z,8.70
2018-08-10T01:19:32.166Z,8.60
2018-08-10T01:20:32.040Z,8.20
2018-08-10T01:21:31.915Z,8.10
2018-08-10T01:22:31.795Z,8.30
2018-08-10T01:23:31.672Z,8.00
2018-08-10T01:24:31.550Z,8.50
2018-08-10T01:25:31.430Z,7.90
2018-08-10T01:26:31.305Z,8.40
2018-08-10T01:27:31.185Z,8.40
2018-08-10T01:28:31.167Z,8.20
2018-08-10T01:29:30.943Z,7.70
2018-08-10T01:30:30.822Z,8.30
2018-08-10T01:31:30.695Z,8.60
2018-08-10T01:32:30.575Z,8.00
2018-08-10T01:33:30.449Z,7.90
2018-08-10T01:34:30.326Z,8.00
2018-08-10T01:35:30.209Z,7.90
2018-08-10T01:36:30.087Z,7.80
2018-08-10T01:37:29.964Z,7.70
2018-08-10T01:38:29.841Z,7.50
2018-08-10T01:39:29.718Z,7.60
2018-08-10T01:40:29.601Z,8.20
2018-08-10T01:41:29.476Z,7.60
2018-08-10T01:42:29.352Z,7.30
2018-08-10T01:43:29.229Z,7.50
2018-08-10T01:44:29.108Z,8.00
2018-08-10T01:45:28.988Z,7.70
2018-08-10T01:46:28.866Z,7.30
2018-08-10T01:47:28.743Z,7.70
2018-08-10T01:48:28.622Z,7.40
2018-08-10T01:49:28.505Z,7.70
2018-08-10T01:50:28.375Z,8.00
2018-08-10T01:51:28.258Z,8.00
2018-08-10T01:52:28.134Z,8.00
2018-08-10T01:53:28.014Z,8.40
2018-08-10T01:54:27.894Z,8.80
2018-08-10T01:55:27.767Z,8.50
2018-08-10T01:56:27.645Z,9.10
2018-08-10T01:57:27.526Z,8.60
2018-08-10T01:58:27.401Z,8.70
2018-08-10T01:59:27.279Z,8.50
2018-08-10T02:00:27.773Z,8.00
2018-08-10T02:01:27.039Z,8.50
2018-08-10T02:02:26.913Z,8.20
2018-08-10T02:03:26.792Z,8.40
2018-08-10T02:04:26.671Z,8.00
2018-08-10T02:05:26.549Z,8.50
2018-08-10T02:06:26.427Z,8.40
2018-08-10T02:07:26.305Z,8.30
2018-08-10T02:08:26.185Z,8.90
2018-08-10T02:09:26.066Z,8.20
2018-08-10T02:10:25.939Z,8.60
2018-08-10T02:11:25.817Z,8.50
2018-08-10T02:12:25.695Z,8.90
2018-08-10T02:13:25.573Z,8.10
2018-08-10T02:14:25.459Z,8.90
2018-08-10T02:15:25.331Z,8.80
2018-08-10T02:16:25.209Z,8.60
2018-08-10T02:17:25.088Z,8.60
2018-08-10T02:18:24.965Z,9.00
2018-08-10T02:19:24.839Z,8.20
2018-08-10T02:20:24.722Z,8.20
2018-08-10T02:21:24.598Z,8.00
2018-08-10T02:22:24.477Z,8.30
2018-08-10T02:23:24.353Z,8.00
2018-08-10T02:24:24.240Z,8.10
2018-08-10T02:25:24.113Z,8.60
2018-08-10T02:26:23.989Z,8.30
2018-08-10T02:27:23.866Z,8.30
2018-08-10T02:28:23.750Z,8.50
2018-08-10T02:29:23.773Z,8.30
2018-08-10T02:30:23.501Z,7.70
2018-08-10T02:31:23.379Z,8.00
2018-08-10T02:32:23.261Z,8.10
2018-08-10T02:33:23.137Z,7.90
2018-08-10T02:34:23.015Z,8.00
2018-08-10T02:35:22.894Z,8.00
2018-08-10T02:36:22.771Z,7.90
2018-08-10T02:37:22.656Z,8.00
2018-08-10T02:38:22.527Z,7.80
2018-08-10T02:39:22.406Z,7.40
2018-08-10T02:40:22.285Z,7.10
2018-08-10T02:41:22.163Z,8.30
2018-08-10T02:42:22.043Z,8.20
2018-08-10T02:43:21.924Z,7.50
2018-08-10T02:44:21.797Z,7.90
2018-08-10T02:45:21.676Z,8.20
2018-08-10T02:46:21.555Z,8.00
2018-08-10T02:47:21.431Z,8.30
2018-08-10T02:48:21.315Z,9.00
2018-08-10T02:49:21.189Z,8.10
2018-08-10T02:50:21.068Z,8.60
2018-08-10T02:51:20.945Z,8.60
2018-08-10T02:52:20.824Z,9.30
2018-08-10T02:53:20.705Z,9.40
2018-08-10T02:54:20.580Z,9.20
2018-08-10T02:55:20.458Z,8.60
2018-08-10T02:56:20.338Z,9.10
2018-08-10T02:57:20.217Z,9.10
2018-08-10T02:58:20.093Z,8.40
2018-08-10T02:59:19.970Z,9.10
2018-08-10T03:00:19.849Z,9.40
2018-08-10T03:01:19.729Z,8.80
2018-08-10T03:02:19.607Z,9.20
2018-08-10T03:03:19.484Z,8.90
2018-08-10T03:04:19.373Z,8.30
2018-08-10T03:05:19.241Z,9.00
2018-08-10T03:06:19.116Z,9.00
2018-08-10T03:07:18.996Z,9.20
2018-08-10T03:08:18.873Z,8.80
2018-08-10T03:09:18.752Z,8.90
2018-08-10T03:10:18.630Z,9.00
2018-08-10T03:11:18.509Z,9.20
2018-08-10T03:12:18.388Z,9.70
2018-08-10T03:13:18.266Z,10.00
2018-08-10T03:14:18.141Z,10.40
2018-08-10T03:15:18.021Z,9.80
2018-08-10T03:16:17.905Z,11.30
2018-08-10T03:17:17.774Z,10.60
2018-08-10T03:18:17.654Z,10.20
2018-08-10T03:19:17.533Z,10.20
2018-08-10T03:20:17.407Z,10.90
2018-08-10T03:21:17.290Z,10.50
2018-08-10T03:22:17.183Z,10.90
2018-08-10T03:23:17.044Z,10.60
2018-08-10T03:24:16.919Z,10.00
2018-08-10T03:25:16.797Z,10.00
2018-08-10T03:26:16.677Z,10.60
2018-08-10T03:27:16.553Z,10.80
2018-08-10T03:28:16.431Z,10.40
2018-08-10T03:29:16.309Z,11.40
2018-08-10T03:30:16.189Z,10.70
2018-08-10T03:31:16.062Z,10.30
2018-08-10T03:32:15.941Z,10.80
2018-08-10T03:33:15.817Z,9.90
2018-08-10T03:34:15.693Z,10.20
2018-08-10T03:35:15.574Z,10.50
2018-08-10T03:36:15.452Z,10.10
2018-08-10T03:37:15.328Z,10.40
2018-08-10T03:38:15.205Z,10.10
2018-08-10T03:39:15.088Z,9.80
2018-08-10T03:40:14.961Z,10.60
2018-08-10T03:41:14.881Z,10.10
2018-08-10T03:42:14.714Z,10.40
2018-08-10T03:43:14.593Z,10.20
2018-08-10T03:44:14.473Z,10.40
2018-08-10T03:45:14.352Z,10.10
2018-08-10T03:46:14.230Z,9.50
2018-08-10T03:47:14.108Z,9.20
2018-08-10T03:48:13.982Z,9.90
2018-08-10T03:49:13.859Z,9.70
2018-08-10T03:50:13.742Z,9.40
2018-08-10T03:51:13.616Z,9.20
2018-08-10T03:52:13.493Z,10.50
2018-08-10T03:53:13.370Z,9.80
2018-08-10T03:54:15.827Z,8.70
2018-08-10T03:55:13.124Z,8.50
2018-08-10T03:56:13.051Z,8.90
2018-08-10T03:57:13.808Z,9.10
2018-08-10T03:58:12.760Z,9.20
2018-08-10T03:59:12.638Z,10.40
2018-08-10T04:00:12.526Z,9.70
2018-08-10T04:01:14.334Z,11.00
2018-08-10T04:02:12.273Z,10.70
2018-08-10T04:03:12.150Z,10.80
2018-08-10T04:04:12.029Z,11.00
2018-08-10T04:05:11.907Z,10.10
2018-08-10T04:06:11.782Z,9.90
2018-08-10T04:07:11.662Z,9.50
2018-08-10T04:08:11.540Z,9.90
2018-08-10T04:09:11.418Z,10.10
2018-08-10T04:10:11.293Z,10.20
2018-08-10T04:11:11.174Z,10.40
2018-08-10T04:12:11.053Z,10.10
2018-08-10T04:13:10.930Z,9.20
2018-08-10T04:14:10.811Z,9.00
2018-08-10T04:15:10.684Z,8.50
2018-08-10T04:16:10.563Z,8.50
2018-08-10T04:17:10.444Z,8.70
2018-08-10T04:18:10.319Z,8.10
2018-08-10T04:19:10.197Z,7.70
2018-08-10T04:20:10.079Z,7.80
2018-08-10T04:21:09.957Z,8.00
2018-08-10T04:22:09.833Z,7.90
2018-08-10T04:23:09.708Z,8.30
2018-08-10T04:24:09.593Z,8.00
2018-08-10T04:25:09.469Z,8.40
2018-08-10T04:26:09.822Z,9.40
2018-08-10T04:27:09.219Z,10.20
2018-08-10T04:28:09.100Z,10.50
2018-08-10T04:29:08.978Z,10.10
2018-08-10T04:30:08.855Z,10.20
2018-08-10T04:31:08.732Z,10.20
2018-08-10T04:32:08.611Z,9.80
2018-08-10T04:33:08.495Z,10.30
2018-08-10T04:34:08.363Z,10.70
2018-08-10T04:35:08.246Z,10.20
2018-08-10T04:36:08.121Z,10.80
2018-08-10T04:37:07.999Z,11.00
2018-08-10T04:38:07.877Z,11.40
2018-08-10T04:39:07.755Z,11.70
2018-08-10T04:40:07.631Z,11.10
2018-08-10T04:41:07.510Z,10.80
2018-08-10T04:42:07.387Z,10.50
2018-08-10T04:43:07.266Z,11.20
2018-08-10T04:44:07.146Z,12.00
2018-08-10T04:45:07.025Z,11.30
2018-08-10T04:46:06.902Z,10.90
2018-08-10T04:47:06.777Z,11.10
2018-08-10T04:48:06.697Z,11.30
2018-08-10T04:49:06.534Z,11.60
2018-08-10T04:50:06.410Z,12.60
2018-08-10T04:51:06.289Z,13.30
2018-08-10T04:52:06.166Z,12.10
2018-08-10T04:53:06.048Z,12.30
2018-08-10T04:54:05.922Z,12.70
2018-08-10T04:55:05.839Z,12.20
2018-08-10T04:56:05.678Z,9.00
2018-08-10T04:57:05.565Z,9.80
2018-08-10T04:58:05.435Z,12.00
2018-08-10T04:59:05.311Z,11.20
2018-08-10T05:00:05.194Z,11.90
2018-08-10T05:01:05.068Z,13.50
2018-08-10T05:02:04.944Z,13.80
2018-08-10T05:03:04.823Z,9.40
2018-08-10T05:04:04.702Z,9.90
2018-08-10T05:05:04.579Z,9.20
2018-08-10T05:06:04.455Z,12.50
2018-08-10T05:07:04.337Z,11.30
2018-08-10T05:08:04.214Z,11.80
2018-08-10T05:09:04.093Z,12.20
2018-08-10T05:10:03.968Z,13.50
2018-08-10T05:11:03.850Z,13.10
2018-08-10T05:12:03.724Z,12.70
2018-08-10T05:13:05.009Z,12.30
2018-08-10T05:14:03.479Z,13.90
2018-08-10T05:15:03.354Z,15.20
2018-08-10T05:16:03.233Z,14.40
2018-08-10T05:17:03.113Z,14.00
2018-08-10T05:18:02.994Z,15.30
2018-08-10T05:19:02.868Z,13.40
2018-08-10T05:20:02.744Z,14.10
2018-08-10T05:21:02.623Z,13.20
2018-08-10T05:22:02.501Z,12.50
2018-08-10T05:23:02.378Z,12.40
2018-08-10T05:24:02.254Z,12.10
2018-08-10T05:25:02.135Z,12.30
2018-08-10T05:26:02.022Z,11.80
2018-08-10T05:27:01.887Z,11.20
2018-08-10T05:28:01.765Z,12.20
2018-08-10T05:29:01.643Z,11.20
2018-08-10T05:30:01.523Z,11.40
2018-08-10T05:31:01.402Z,11.70
2018-08-10T05:32:01.278Z,11.20
2018-08-10T05:33:01.156Z,11.10
2018-08-10T05:34:01.033Z,11.50
2018-08-10T05:35:00.919Z,10.60
2018-08-10T05:36:00.791Z,10.50
2018-08-10T05:37:00.670Z,10.70
2018-08-10T05:38:00.549Z,10.40
2018-08-10T05:39:00.430Z,11.20
2018-08-10T05:40:00.302Z,10.80
2018-08-10T05:41:00.179Z,9.70
2018-08-10T05:42:00.061Z,11.50
2018-08-10T05:42:59.945Z,12.20
2018-08-10T05:43:59.876Z,13.20
2018-08-10T05:44:59.691Z,13.60
2018-08-10T05:45:59.569Z,13.60
2018-08-10T05:46:59.521Z,13.60
2018-08-10T05:47:59.367Z,14.30
2018-08-10T05:48:59.205Z,15.40
2018-08-10T05:49:59.084Z,14.00
2018-08-10T05:50:58.983Z,14.10
2018-08-10T05:51:58.837Z,13.10
2018-08-10T05:52:58.715Z,12.80
2018-08-10T05:53:58.593Z,13.60
2018-08-10T05:54:58.470Z,13.10
2018-08-10T05:55:58.344Z,13.30
2018-08-10T05:56:58.223Z,14.40
2018-08-10T05:57:58.102Z,17.20
2018-08-10T05:58:57.979Z,14.60
2018-08-10T05:59:57.857Z,14.40
2018-08-10T06:00:57.736Z,13.40
2018-08-10T06:01:57.618Z,14.90
2018-08-10T06:02:57.491Z,15.30
2018-08-10T06:03:57.488Z,13.30
2018-08-10T06:04:57.246Z,12.20
2018-08-10T06:05:57.126Z,12.20
2018-08-10T06:06:57.005Z,12.00
2018-08-10T06:07:56.880Z,12.20
2018-08-10T06:08:56.757Z,11.30
2018-08-10T06:09:56.639Z,10.80
2018-08-10T06:10:56.512Z,11.90
2018-08-10T06:11:56.391Z,11.50
2018-08-10T06:12:56.269Z,12.20
2018-08-10T06:13:56.148Z,10.70
2018-08-10T06:14:56.026Z,13.90
2018-08-10T06:15:55.901Z,9.10
2018-08-10T06:16:55.778Z,10.80
2018-08-10T06:17:55.654Z,11.00
2018-08-10T06:18:55.534Z,11.20
2018-08-10T06:19:55.471Z,10.50
2018-08-10T06:20:55.291Z,9.80
2018-08-10T06:21:55.166Z,9.80
2018-08-10T06:22:55.906Z,9.60
2018-08-10T06:23:54.977Z,9.70
2018-08-10T06:24:54.848Z,9.10
2018-08-10T06:25:54.679Z,9.10
2018-08-10T06:26:54.557Z,8.10
2018-08-10T06:27:54.484Z,7.70
2018-08-10T06:28:54.313Z,8.00
2018-08-10T06:29:54.194Z,8.00
2018-08-10T06:30:54.070Z,7.60
2018-08-10T06:31:53.948Z,8.10
2018-08-10T06:32:53.827Z,8.00
2018-08-10T06:33:53.785Z,7.70
2018-08-10T06:34:53.583Z,9.20
2018-08-10T06:35:53.460Z,8.80
2018-08-10T06:36:53.341Z,8.80
2018-08-10T06:37:53.214Z,8.90
2018-08-10T06:38:53.093Z,8.30
2018-08-10T06:39:52.997Z,8.50
2018-08-10T06:40:52.852Z,8.30
2018-08-10T06:41:52.731Z,9.00
2018-08-10T06:42:52.611Z,8.50
2018-08-10T06:43:52.484Z,9.00
2018-08-10T06:44:52.403Z,8.10
2018-08-10T06:45:52.243Z,8.30
2018-08-10T06:46:52.119Z,8.40
2018-08-10T06:47:51.995Z,8.40
2018-08-10T06:48:51.872Z,10.70
2018-08-10T06:49:51.752Z,11.00
2018-08-10T06:50:51.627Z,8.90
2018-08-10T06:51:51.873Z,7.10
2018-08-10T06:52:51.385Z,7.20
2018-08-10T06:53:51.262Z,7.50
2018-08-10T06:54:52.872Z,9.10
2018-08-10T06:55:51.057Z,9.20
2018-08-10T06:56:50.898Z,7.40
2018-08-10T06:57:50.770Z,8.80
2018-08-10T06:58:50.649Z,6.00
2018-08-10T06:59:50.528Z,8.20
2018-08-10T07:00:50.440Z,7.40
2018-08-10T07:01:50.284Z,8.40
2018-08-10T07:02:50.159Z,7.50
2018-08-10T07:03:50.041Z,6.10
2018-08-10T07:04:49.916Z,6.50
2018-08-10T07:05:49.793Z,6.10
2018-08-10T07:06:49.670Z,6.00
2018-08-10T07:07:49.612Z,7.10
2018-08-10T07:08:49.425Z,5.30
2018-08-10T07:09:49.302Z,5.50
2018-08-10T07:10:49.181Z,5.60
2018-08-10T07:11:49.059Z,5.70
2018-08-10T07:12:48.951Z,6.80
2018-08-10T07:13:48.813Z,6.00
2018-08-10T07:14:48.691Z,5.20
2018-08-10T07:15:48.577Z,6.10
2018-08-10T07:16:48.449Z,4.30
2018-08-10T07:17:48.324Z,4.40
2018-08-10T07:18:48.200Z,5.90
2018-08-10T07:19:48.080Z,5.40
2018-08-10T07:20:47.954Z,5.20
2018-08-10T07:21:47.833Z,5.30
2018-08-10T07:22:47.711Z,5.40
2018-08-10T07:23:47.592Z,5.60
2018-08-10T07:24:47.473Z,6.00
2018-08-10T07:25:47.344Z,7.00
2018-08-10T07:26:47.222Z,8.70
2018-08-10T07:27:47.097Z,6.90
2018-08-10T07:28:46.976Z,6.20
2018-08-10T07:29:46.850Z,4.60
2018-08-10T07:30:46.728Z,3.90
2018-08-10T07:31:46.607Z,5.00
2018-08-10T07:32:46.486Z,5.30
2018-08-10T07:33:46.360Z,5.60
2018-08-10T07:34:46.241Z,5.70
2018-08-10T07:35:46.114Z,5.30
2018-08-10T07:36:45.993Z,4.90
2018-08-10T07:37:45.875Z,6.30
2018-08-10T07:38:45.749Z,4.00
2018-08-10T07:39:45.627Z,3.20
2018-08-10T07:40:45.508Z,3.50
2018-08-10T07:41:45.380Z,3.90
2018-08-10T07:42:45.258Z,4.10
2018-08-10T07:43:45.136Z,4.20
2018-08-10T07:44:45.008Z,4.30
2018-08-10T07:45:44.887Z,4.30
2018-08-10T07:46:44.766Z,3.70
2018-08-10T07:47:44.642Z,3.70
2018-08-10T07:48:44.519Z,3.70
2018-08-10T07:49:44.396Z,3.30
2018-08-10T07:50:44.276Z,3.50
2018-08-10T07:51:44.267Z,3.40
2018-08-10T07:52:44.030Z,3.00
2018-08-10T07:53:43.908Z,2.50
2018-08-10T07:54:43.782Z,2.50
2018-08-10T07:55:43.660Z,2.60
2018-08-10T07:56:43.536Z,2.40
2018-08-10T07:57:43.415Z,2.30
2018-08-10T07:58:43.298Z,2.60
2018-08-10T07:59:43.173Z,2.60
2018-08-10T08:00:43.045Z,2.50
2018-08-10T08:01:42.924Z,2.80
2018-08-10T08:02:42.804Z,3.10
2018-08-10T08:03:42.678Z,3.00
2018-08-10T08:04:42.556Z,3.00
2018-08-10T08:05:42.433Z,3.20
2018-08-10T08:06:43.727Z,3.10
2018-08-10T08:07:42.188Z,2.90
2018-08-10T08:08:42.065Z,2.90
2018-08-10T08:09:41.971Z,2.40
2018-08-10T08:10:41.820Z,2.30
2018-08-10T08:11:41.699Z,2.20
2018-08-10T08:12:41.579Z,2.20
2018-08-10T08:13:41.473Z,2.50
2018-08-10T08:14:41.329Z,2.00
2018-08-10T08:15:41.205Z,2.00
2018-08-10T08:16:41.084Z,2.50
2018-08-10T08:17:40.959Z,2.50
2018-08-10T08:18:40.843Z,4.00
2018-08-10T08:19:40.820Z,2.30
2018-08-10T08:20:40.593Z,2.20
2018-08-10T08:21:40.468Z,1.90
2018-08-10T08:22:40.347Z,2.00
2018-08-10T08:23:40.224Z,1.70
2018-08-10T08:24:40.100Z,1.60
2018-08-10T08:25:39.976Z,1.70
2018-08-10T08:26:39.855Z,1.40
2018-08-10T08:27:39.733Z,1.60
2018-08-10T08:28:39.611Z,1.70
2018-08-10T08:29:39.861Z,1.50
2018-08-10T08:30:39.363Z,1.50
2018-08-10T08:31:41.915Z,1.60
2018-08-10T08:32:39.952Z,1.60
2018-08-10T08:33:39.052Z,1.80
2018-08-10T08:34:38.886Z,1.50
2018-08-10T08:35:38.749Z,1.40
2018-08-10T08:36:39.940Z,1.50
2018-08-10T08:37:38.507Z,1.50
2018-08-10T08:38:38.384Z,1.70
2018-08-10T08:39:38.256Z,1.50
2018-08-10T08:40:38.138Z,32.30
2018-08-10T08:41:38.012Z,155.10
2018-08-10T08:42:45.481Z,106.60
2018-08-10T08:43:37.765Z,57.00
2018-08-10T08:44:37.649Z,7.10
2018-08-10T08:45:38.437Z,4.00
2018-08-10T08:46:37.639Z,3.50
2018-08-10T08:47:37.276Z,7.50
2018-08-10T08:48:37.899Z,5.60
2018-08-10T08:49:37.026Z,1.80
2018-08-10T08:50:36.905Z,1.60
2018-08-10T08:51:38.478Z,1.70
2018-08-10T08:52:36.660Z,1.40
2018-08-10T08:53:36.539Z,1.60
2018-08-10T08:54:36.412Z,1.40
2018-08-10T08:55:36.290Z,1.60
2018-08-10T08:56:36.168Z,2.60
2018-08-10T08:57:36.046Z,6.00
2018-08-10T08:58:35.923Z,2.50
2018-08-10T08:59:35.811Z,1.80
2018-08-10T09:00:36.411Z,1.50
2018-08-10T09:01:37.000Z,3.10
2018-08-10T09:02:35.705Z,4.40
2018-08-10T09:03:35.309Z,1.50
2018-08-10T09:04:35.910Z,3.50
2018-08-10T09:05:35.207Z,4.10
2018-08-10T09:06:35.012Z,4.80
2018-08-10T09:07:35.551Z,3.80
2018-08-10T09:08:34.696Z,2.10
2018-08-10T09:09:35.571Z,2.60
2018-08-10T09:10:34.449Z,4.60
2018-08-10T09:11:34.328Z,5.00
2018-08-10T09:12:34.206Z,5.80
2018-08-10T09:13:34.082Z,3.50
2018-08-10T09:14:33.960Z,2.40
2018-08-10T09:15:33.843Z,9.40
2018-08-10T09:16:33.760Z,8.20
2018-08-10T09:17:34.529Z,8.80
2018-08-10T09:18:33.468Z,9.30
2018-08-10T09:19:33.380Z,6.90
2018-08-10T09:20:33.226Z,7.60
2018-08-10T09:21:33.100Z,4.00
2018-08-10T09:22:32.976Z,4.60
2018-08-10T09:23:32.853Z,2.00
2018-08-10T09:24:32.734Z,1.80
2018-08-10T09:25:32.614Z,2.40
2018-08-10T09:26:33.416Z,2.80
2018-08-10T09:27:32.367Z,4.00
2018-08-10T09:28:32.246Z,3.70
2018-08-10T09:29:32.578Z,2.10
2018-08-10T09:30:32.004Z,2.20
2018-08-10T09:31:31.877Z,2.30
2018-08-10T09:32:31.753Z,2.60
2018-08-10T09:33:31.628Z,1.90
2018-08-10T09:34:31.980Z,1.70
2018-08-10T09:35:31.383Z,1.80
2018-08-10T09:36:31.922Z,1.90
2018-08-10T09:37:31.159Z,2.00
2018-08-10T09:38:31.021Z,2.00
2018-08-10T09:39:30.898Z,2.30
2018-08-10T09:40:32.079Z,2.20
2018-08-10T09:41:31.425Z,2.10
2018-08-10T09:42:30.524Z,2.40
2018-08-10T09:43:30.403Z,2.20
2018-08-10T09:44:30.282Z,2.10
2018-08-10T09:45:30.226Z,2.20
2018-08-10T09:46:30.059Z,2.40
2018-08-10T09:47:29.915Z,2.50
2018-08-10T09:48:29.791Z,2.20
2018-08-10T09:49:29.681Z,2.60
2018-08-10T09:50:29.730Z,2.40
2018-08-10T09:51:29.436Z,2.40
2018-08-10T09:52:29.301Z,2.30
2018-08-10T09:53:29.175Z,2.60
2018-08-10T09:54:29.061Z,2.30
2018-08-10T09:55:28.931Z,2.40
2018-08-10T09:56:28.808Z,2.40
2018-08-10T09:57:29.735Z,2.10
2018-08-10T09:58:28.575Z,2.40
2018-08-10T09:59:28.442Z,2.10
2018-08-10T10:00:28.324Z,2.10
2018-08-10T10:01:28.196Z,1.90
2018-08-10T10:02:28.073Z,2.00
2018-08-10T10:03:27.949Z,1.80
2018-08-10T10:04:27.830Z,1.90
2018-08-10T10:05:27.706Z,1.60
2018-08-10T10:06:27.585Z,2.00
2018-08-10T10:07:27.463Z,2.00
2018-08-10T10:08:27.338Z,1.60
2018-08-10T10:09:27.220Z,1.90
2018-08-10T10:10:27.096Z,1.80
2018-08-10T10:11:27.045Z,1.70
2018-08-10T10:12:26.854Z,1.90
2018-08-10T10:13:26.727Z,1.90
2018-08-10T10:14:26.653Z,2.00
2018-08-10T10:15:26.527Z,2.00
2018-08-10T10:16:26.361Z,2.10
2018-08-10T10:17:26.347Z,1.90
2018-08-10T10:18:26.185Z,2.00
2018-08-10T10:19:26.048Z,2.30
2018-08-10T10:20:25.873Z,2.30
2018-08-10T10:21:25.747Z,2.20
2018-08-10T10:22:25.624Z,2.40
2018-08-10T10:23:25.502Z,2.40
2018-08-10T10:24:25.541Z,2.50
2018-08-10T10:25:25.257Z,2.30
2018-08-10T10:26:25.133Z,2.40
2018-08-10T10:27:25.068Z,2.20
2018-08-10T10:28:24.895Z,2.40
2018-08-10T10:29:24.767Z,2.00
2018-08-10T10:30:24.649Z,2.20
2018-08-10T10:31:24.524Z,1.90
2018-08-10T10:32:24.442Z,1.80
2018-08-10T10:33:24.281Z,2.10
2018-08-10T10:34:24.156Z,1.90
2018-08-10T10:35:24.047Z,2.00
2018-08-10T10:36:23.912Z,1.60
2018-08-10T10:37:23.791Z,1.60
2018-08-10T10:38:23.669Z,1.90
2018-08-10T10:39:23.548Z,2.00
2018-08-10T10:40:24.313Z,1.50
2018-08-10T10:41:23.562Z,1.60
2018-08-10T10:42:23.182Z,1.70
2018-08-10T10:43:23.059Z,1.60
2018-08-10T10:44:24.429Z,1.80
2018-08-10T10:45:23.013Z,1.50
2018-08-10T10:46:22.695Z,1.60
2018-08-10T10:47:22.623Z,1.40
2018-08-10T10:48:22.447Z,1.50
2018-08-10T10:49:22.330Z,1.50
2018-08-10T10:50:22.203Z,1.60
2018-08-10T10:51:22.134Z,1.50
2018-08-10T10:52:21.970Z,1.80
2018-08-10T10:53:21.838Z,1.70
2018-08-10T10:54:21.715Z,1.70
2018-08-10T10:55:21.650Z,1.60
2018-08-10T10:56:21.476Z,1.80
2018-08-10T10:57:21.347Z,1.80
2018-08-10T10:58:21.258Z,1.70
2018-08-10T10:59:21.105Z,2.00
2018-08-10T11:00:21.940Z,1.80
2018-08-10T11:01:20.860Z,1.80
2018-08-10T11:02:20.739Z,1.70
2018-08-10T11:03:20.620Z,1.60
2018-08-10T11:04:20.493Z,1.70
2018-08-10T11:05:20.375Z,1.80
2018-08-10T11:06:20.323Z,1.90
2018-08-10T11:07:20.128Z,1.80
2018-08-10T11:08:20.005Z,1.60
2018-08-10T11:09:19.892Z,1.70
2018-08-10T11:10:19.764Z,1.90
2018-08-10T11:11:19.644Z,1.90
2018-08-10T11:12:19.516Z,1.80
2018-08-10T11:13:19.394Z,2.00
2018-08-10T11:14:19.956Z,1.90
2018-08-10T11:15:19.150Z,1.90
2018-08-10T11:16:19.031Z,1.90
2018-08-10T11:17:18.907Z,1.90
2018-08-10T11:18:18.784Z,1.90
2018-08-10T11:19:19.444Z,2.00
2018-08-10T11:20:18.541Z,1.90
2018-08-10T11:21:18.440Z,1.90
2018-08-10T11:22:18.293Z,2.00
2018-08-10T11:23:18.172Z,2.00
2018-08-10T11:24:21.024Z,1.80
2018-08-10T11:25:18.286Z,1.80
2018-08-10T11:26:17.806Z,1.90
2018-08-10T11:27:17.683Z,2.00
2018-08-10T11:28:17.562Z,2.00
2018-08-10T11:29:17.437Z,2.00
2018-08-10T11:30:17.651Z,1.80
2018-08-10T11:31:18.356Z,1.90
2018-08-10T11:32:17.272Z,1.80
2018-08-10T11:33:17.172Z,1.90
2018-08-10T11:34:16.826Z,2.10
2018-08-10T11:35:16.707Z,1.60
2018-08-10T11:36:19.538Z,1.90
2018-08-10T11:37:16.910Z,2.00
2018-08-10T11:38:17.754Z,1.80
2018-08-10T11:39:23.672Z,1.90
2018-08-10T11:40:17.718Z,2.00
2018-08-10T11:41:15.969Z,1.60
2018-08-10T11:42:15.847Z,1.90
2018-08-10T11:43:16.071Z,1.90
2018-08-10T11:44:15.610Z,1.90
2018-08-10T11:45:15.480Z,2.10
2018-08-10T11:46:15.357Z,2.10
2018-08-10T11:47:15.237Z,2.10
2018-08-10T11:48:15.121Z,1.90
2018-08-10T11:49:14.991Z,1.90
2018-08-10T11:50:14.872Z,2.00
2018-08-10T11:51:14.750Z,2.00
2018-08-10T11:52:14.628Z,2.00
2018-08-10T11:53:14.503Z,2.20
2018-08-10T11:54:14.384Z,1.90
2018-08-10T11:55:14.256Z,2.10
2018-08-10T11:56:14.135Z,2.10
2018-08-10T11:57:14.057Z,2.10
2018-08-10T11:58:13.892Z,2.10
2018-08-10T11:59:13.769Z,2.00
2018-08-10T12:00:14.294Z,1.90
2018-08-10T12:01:13.527Z,2.00
2018-08-10T12:02:13.523Z,2.10
2018-08-10T12:03:14.565Z,2.10
2018-08-10T12:04:13.163Z,1.80
2018-08-10T12:05:13.036Z,1.80
2018-08-10T12:06:12.960Z,1.90
2018-08-10T12:07:13.066Z,1.80
2018-08-10T12:08:12.673Z,1.80
2018-08-10T12:09:12.548Z,1.60
2018-08-10T12:10:12.450Z,1.80
2018-08-10T12:11:12.309Z,1.70
2018-08-10T12:12:12.179Z,1.60
2018-08-10T12:13:12.058Z,1.80
2018-08-10T12:14:11.935Z,1.80
2018-08-10T12:15:11.814Z,2.00
2018-08-10T12:16:11.690Z,2.20
2018-08-10T12:17:11.570Z,2.10
2018-08-10T12:18:11.562Z,2.20
2018-08-10T12:19:11.489Z,2.10
2018-08-10T12:20:11.213Z,2.40
2018-08-10T12:21:11.153Z,2.10
2018-08-10T12:22:10.951Z,2.40
2018-08-10T12:23:10.829Z,2.50
2018-08-10T12:24:10.709Z,2.20
2018-08-10T12:25:10.663Z,2.10
2018-08-10T12:26:10.461Z,2.30
2018-08-10T12:27:10.342Z,2.00
2018-08-10T12:28:10.224Z,1.90
2018-08-10T12:29:10.128Z,1.60
2018-08-10T12:30:09.985Z,1.90
2018-08-10T12:31:09.847Z,2.00
2018-08-10T12:32:09.876Z,1.90
2018-08-10T12:33:09.880Z,2.20
2018-08-10T12:34:09.837Z,2.10
2018-08-10T12:35:09.357Z,2.00
2018-08-10T12:36:10.167Z,2.00
2018-08-10T12:37:09.113Z,2.50
2018-08-10T12:38:08.991Z,2.70
2018-08-10T12:39:11.585Z,2.70
2018-08-10T12:40:08.751Z,2.50
2018-08-10T12:41:08.623Z,2.50
2018-08-10T12:42:08.499Z,2.40
2018-08-10T12:43:09.755Z,2.50
2018-08-10T12:44:08.262Z,3.00
2018-08-10T12:45:08.133Z,4.50
2018-08-10T12:46:08.011Z,4.70
2018-08-10T12:47:07.892Z,3.30
2018-08-10T12:48:07.852Z,3.60
2018-08-10T12:49:07.652Z,3.10
2018-08-10T12:50:07.625Z,2.90
2018-08-10T12:51:07.401Z,2.90
2018-08-10T12:52:07.277Z,2.80
2018-08-10T12:53:07.155Z,3.20
2018-08-10T12:54:07.036Z,3.00
2018-08-10T12:55:06.914Z,2.70
2018-08-10T12:56:06.789Z,2.50
2018-08-10T12:57:06.779Z,2.70
2018-08-10T12:58:06.543Z,2.60
2018-08-10T12:59:06.423Z,2.70
2018-08-10T13:00:06.299Z,2.60
2018-08-10T13:01:06.176Z,2.40
2018-08-10T13:02:06.052Z,2.90
2018-08-10T13:03:06.096Z,3.00
2018-08-10T13:04:05.813Z,3.30
2018-08-10T13:05:05.685Z,3.00
2018-08-10T13:06:05.566Z,2.80
2018-08-10T13:07:05.445Z,2.20
2018-08-10T13:08:05.325Z,2.50
2018-08-10T13:09:05.205Z,3.30
2018-08-10T13:10:05.077Z,2.90
2018-08-10T13:11:04.955Z,2.90
2018-08-10T13:12:04.853Z,3.30